sensor_id;sensor_type;location;lat;lon;timestamp;pressure;altitude;pressure_sealevel;temperature;humidity
9676;BME280;4876;42.656;23.292;2022-10-22T00:00:57;95192.34;;;8.84;80.45
9676;BME280;4876;42.656;23.292;2022-10-22T00:03:24;95191.56;;;8.83;80.28
9676;BME280;4876;42.656;23.292;2022-10-22T00:05:51;95190.44;;;8.89;79.55
9676;BME280;4876;42.656;23.292;2022-10-22T00:08:19;95183.91;;;8.87;79.79
9676;BME280;4876;42.656;23.292;2022-10-22T00:10:46;95197.00;;;8.87;78.98
9676;BME280;4876;42.656;23.292;2022-10-22T00:13:13;95191.00;;;8.86;79.39
9676;BME280;4876;42.656;23.292;2022-10-22T00:15:39;95186.19;;;8.94;78.82
9676;BME280;4876;42.656;23.292;2022-10-22T00:18:06;95191.19;;;8.95;78.66
9676;BME280;4876;42.656;23.292;2022-10-22T00:20:33;95197.75;;;8.93;78.77
9676;BME280;4876;42.656;23.292;2022-10-22T00:23:00;95195.56;;;9.00;78.65
9676;BME280;4876;42.656;23.292;2022-10-22T00:25:28;95196.59;;;8.75;79.15
9676;BME280;4876;42.656;23.292;2022-10-22T00:27:55;95200.75;;;8.81;79.24
9676;BME280;4876;42.656;23.292;2022-10-22T00:30:22;95189.72;;;8.84;79.47
9676;BME280;4876;42.656;23.292;2022-10-22T00:32:48;95182.34;;;8.86;79.27
9676;BME280;4876;42.656;23.292;2022-10-22T00:35:15;95165.22;;;8.70;79.64
9676;BME280;4876;42.656;23.292;2022-10-22T00:37:42;95164.72;;;8.62;79.45
9676;BME280;4876;42.656;23.292;2022-10-22T00:40:10;95170.50;;;8.65;79.52
9676;BME280;4876;42.656;23.292;2022-10-22T00:42:38;95173.06;;;8.70;79.30
9676;BME280;4876;42.656;23.292;2022-10-22T00:45:14;95168.28;;;8.77;78.59
9676;BME280;4876;42.656;23.292;2022-10-22T00:47:43;95175.91;;;8.73;79.16
9676;BME280;4876;42.656;23.292;2022-10-22T00:50:14;95183.81;;;8.68;79.22
9676;BME280;4876;42.656;23.292;2022-10-22T00:52:43;95184.84;;;8.72;79.80
9676;BME280;4876;42.656;23.292;2022-10-22T00:55:10;95179.47;;;8.58;78.95
9676;BME280;4876;42.656;23.292;2022-10-22T00:57:39;95120.78;;;8.20;80.10
9676;BME280;4876;42.656;23.292;2022-10-22T01:00:08;95172.03;;;8.66;79.99
9676;BME280;4876;42.656;23.292;2022-10-22T01:02:35;95167.88;;;8.65;80.02
9676;BME280;4876;42.656;23.292;2022-10-22T01:05:03;95151.63;;;8.62;80.14
9676;BME280;4876;42.656;23.292;2022-10-22T01:07:30;95150.38;;;8.55;81.17
9676;BME280;4876;42.656;23.292;2022-10-22T01:10:02;95146.53;;;8.47;81.47
9676;BME280;4876;42.656;23.292;2022-10-22T01:12:40;95145.97;;;8.50;82.11
9676;BME280;4876;42.656;23.292;2022-10-22T01:15:17;95137.56;;;8.53;81.12
9676;BME280;4876;42.656;23.292;2022-10-22T01:17:50;95140.72;;;8.50;81.12
9676;BME280;4876;42.656;23.292;2022-10-22T01:20:38;95135.47;;;8.50;81.08
9676;BME280;4876;42.656;23.292;2022-10-22T01:23:41;95139.34;;;8.58;81.09
9676;BME280;4876;42.656;23.292;2022-10-22T01:26:17;95137.06;;;8.51;81.06
9676;BME280;4876;42.656;23.292;2022-10-22T01:28:59;95124.97;;;8.50;81.57
9676;BME280;4876;42.656;23.292;2022-10-22T01:31:30;95111.50;;;8.33;81.45
9676;BME280;4876;42.656;23.292;2022-10-22T01:33:58;95122.88;;;8.52;81.18
9676;BME280;4876;42.656;23.292;2022-10-22T01:36:28;95128.38;;;8.51;80.91
9676;BME280;4876;42.656;23.292;2022-10-22T01:38:58;95119.97;;;8.54;80.25
9676;BME280;4876;42.656;23.292;2022-10-22T01:41:26;95113.97;;;8.53;80.34
9676;BME280;4876;42.656;23.292;2022-10-22T01:43:55;95118.44;;;8.53;80.88
9676;BME280;4876;42.656;23.292;2022-10-22T01:46:23;95117.13;;;8.50;80.32
9676;BME280;4876;42.656;23.292;2022-10-22T01:49:05;95111.09;;;8.50;79.98
9676;BME280;4876;42.656;23.292;2022-10-22T01:51:48;95111.75;;;8.36;80.91
9676;BME280;4876;42.656;23.292;2022-10-22T01:54:26;95113.59;;;8.36;81.39
9676;BME280;4876;42.656;23.292;2022-10-22T01:57:00;95120.38;;;8.37;81.68
9676;BME280;4876;42.656;23.292;2022-10-22T01:59:41;95118.78;;;8.41;81.21
9676;BME280;4876;42.656;23.292;2022-10-22T02:02:22;95115.59;;;8.44;81.82
9676;BME280;4876;42.656;23.292;2022-10-22T02:04:54;95102.94;;;8.22;81.68
9676;BME280;4876;42.656;23.292;2022-10-22T02:07:29;95114.72;;;8.20;82.44
9676;BME280;4876;42.656;23.292;2022-10-22T02:09:58;95120.69;;;8.30;82.71
9676;BME280;4876;42.656;23.292;2022-10-22T02:12:28;95120.94;;;8.34;81.69
9676;BME280;4876;42.656;23.292;2022-10-22T02:14:59;95018.06;;;7.60;82.56
9676;BME280;4876;42.656;23.292;2022-10-22T02:17:30;95114.63;;;8.40;81.89
9676;BME280;4876;42.656;23.292;2022-10-22T02:20:00;95108.31;;;8.41;81.59
9676;BME280;4876;42.656;23.292;2022-10-22T02:22:28;95103.31;;;8.45;80.76
9676;BME280;4876;42.656;23.292;2022-10-22T02:24:56;95093.53;;;8.50;80.26
9676;BME280;4876;42.656;23.292;2022-10-22T02:27:25;95095.25;;;8.36;80.85
9676;BME280;4876;42.656;23.292;2022-10-22T02:30:00;95099.50;;;8.27;81.92
9676;BME280;4876;42.656;23.292;2022-10-22T02:32:30;95117.63;;;8.18;82.64
9676;BME280;4876;42.656;23.292;2022-10-22T02:35:00;95122.91;;;8.13;82.53
9676;BME280;4876;42.656;23.292;2022-10-22T02:37:30;95120.84;;;8.10;82.09
9676;BME280;4876;42.656;23.292;2022-10-22T02:39:57;95130.09;;;8.02;82.48
9676;BME280;4876;42.656;23.292;2022-10-22T02:42:25;95133.19;;;8.09;82.65
9676;BME280;4876;42.656;23.292;2022-10-22T02:44:52;95136.81;;;8.14;82.09
9676;BME280;4876;42.656;23.292;2022-10-22T02:47:20;95135.75;;;8.15;81.34
9676;BME280;4876;42.656;23.292;2022-10-22T02:49:47;95132.69;;;8.07;81.45
9676;BME280;4876;42.656;23.292;2022-10-22T02:52:13;95134.69;;;8.16;81.53
9676;BME280;4876;42.656;23.292;2022-10-22T02:54:40;95129.69;;;8.19;81.34
9676;BME280;4876;42.656;23.292;2022-10-22T02:57:07;95130.56;;;8.09;82.60
9676;BME280;4876;42.656;23.292;2022-10-22T02:59:34;95125.31;;;8.09;81.95
9676;BME280;4876;42.656;23.292;2022-10-22T03:02:00;95122.19;;;8.07;81.79
9676;BME280;4876;42.656;23.292;2022-10-22T03:04:29;95118.16;;;7.86;82.18
9676;BME280;4876;42.656;23.292;2022-10-22T03:06:55;95126.16;;;7.61;83.45
9676;BME280;4876;42.656;23.292;2022-10-22T03:09:22;95128.19;;;7.74;83.66
9676;BME280;4876;42.656;23.292;2022-10-22T03:11:49;95131.56;;;7.74;83.20
9676;BME280;4876;42.656;23.292;2022-10-22T03:14:16;95131.28;;;7.76;84.00
9676;BME280;4876;42.656;23.292;2022-10-22T03:16:43;95115.06;;;7.79;83.58
9676;BME280;4876;42.656;23.292;2022-10-22T03:19:09;95119.44;;;7.89;83.42
9676;BME280;4876;42.656;23.292;2022-10-22T03:21:40;95121.00;;;7.90;83.19
9676;BME280;4876;42.656;23.292;2022-10-22T03:24:10;95104.28;;;7.86;82.24
9676;BME280;4876;42.656;23.292;2022-10-22T03:26:40;95116.53;;;7.95;82.73
9676;BME280;4876;42.656;23.292;2022-10-22T03:29:09;95108.38;;;7.97;82.10
9676;BME280;4876;42.656;23.292;2022-10-22T03:31:37;95113.63;;;7.97;82.60
9676;BME280;4876;42.656;23.292;2022-10-22T03:34:13;95081.03;;;7.79;82.51
9676;BME280;4876;42.656;23.292;2022-10-22T03:36:42;95113.59;;;8.02;82.98
9676;BME280;4876;42.656;23.292;2022-10-22T03:39:11;95108.81;;;8.09;82.61
9676;BME280;4876;42.656;23.292;2022-10-22T03:41:47;95105.66;;;8.07;82.17
9676;BME280;4876;42.656;23.292;2022-10-22T03:44:15;95101.00;;;8.04;82.28
9676;BME280;4876;42.656;23.292;2022-10-22T03:46:42;95101.50;;;8.06;81.79
9676;BME280;4876;42.656;23.292;2022-10-22T03:49:09;95095.03;;;7.93;83.02
9676;BME280;4876;42.656;23.292;2022-10-22T03:51:36;95107.78;;;8.05;82.40
9676;BME280;4876;42.656;23.292;2022-10-22T03:54:04;95119.06;;;8.05;82.35
9676;BME280;4876;42.656;23.292;2022-10-22T03:56:31;95123.50;;;8.05;82.94
9676;BME280;4876;42.656;23.292;2022-10-22T03:58:59;95113.81;;;8.05;83.04
9676;BME280;4876;42.656;23.292;2022-10-22T04:01:27;95124.53;;;8.09;83.21
9676;BME280;4876;42.656;23.292;2022-10-22T04:03:55;95112.97;;;8.15;82.36
9676;BME280;4876;42.656;23.292;2022-10-22T04:06:22;95100.94;;;8.14;81.64
9676;BME280;4876;42.656;23.292;2022-10-22T04:08:49;95098.56;;;8.13;82.18
9676;BME280;4876;42.656;23.292;2022-10-22T04:11:17;95098.31;;;8.14;82.08
9676;BME280;4876;42.656;23.292;2022-10-22T04:13:46;95103.28;;;8.10;82.01
9676;BME280;4876;42.656;23.292;2022-10-22T04:16:15;95104.84;;;8.12;82.12
9676;BME280;4876;42.656;23.292;2022-10-22T04:18:42;95103.25;;;8.16;82.09
9676;BME280;4876;42.656;23.292;2022-10-22T04:21:11;95096.41;;;8.20;82.05
9676;BME280;4876;42.656;23.292;2022-10-22T04:23:38;95092.00;;;8.15;82.82
9676;BME280;4876;42.656;23.292;2022-10-22T04:26:06;95015.63;;;7.69;83.11
9676;BME280;4876;42.656;23.292;2022-10-22T04:28:34;95090.16;;;8.16;82.69
9676;BME280;4876;42.656;23.292;2022-10-22T04:31:06;95090.66;;;8.18;83.37
9676;BME280;4876;42.656;23.292;2022-10-22T04:33:33;95089.56;;;8.24;83.66
9676;BME280;4876;42.656;23.292;2022-10-22T04:36:00;95103.72;;;8.23;82.53
9676;BME280;4876;42.656;23.292;2022-10-22T04:38:31;95106.94;;;8.15;82.51
9676;BME280;4876;42.656;23.292;2022-10-22T04:41:07;95102.75;;;8.14;83.43
9676;BME280;4876;42.656;23.292;2022-10-22T04:43:35;95083.09;;;8.16;83.32
9676;BME280;4876;42.656;23.292;2022-10-22T04:46:02;95097.09;;;8.30;82.71
9676;BME280;4876;42.656;23.292;2022-10-22T04:48:29;95098.72;;;8.26;83.11
9676;BME280;4876;42.656;23.292;2022-10-22T04:50:56;95091.31;;;8.33;82.98
9676;BME280;4876;42.656;23.292;2022-10-22T04:53:23;95102.06;;;8.32;81.94
9676;BME280;4876;42.656;23.292;2022-10-22T04:55:49;95105.47;;;8.32;80.98
9676;BME280;4876;42.656;23.292;2022-10-22T04:58:16;95117.19;;;8.11;81.17
9676;BME280;4876;42.656;23.292;2022-10-22T05:00:47;95111.41;;;8.14;82.48
9676;BME280;4876;42.656;23.292;2022-10-22T05:03:14;95120.53;;;8.17;82.92
9676;BME280;4876;42.656;23.292;2022-10-22T05:05:41;95103.47;;;8.19;82.12
9676;BME280;4876;42.656;23.292;2022-10-22T05:08:08;95112.31;;;8.28;82.00
9676;BME280;4876;42.656;23.292;2022-10-22T05:10:34;95131.88;;;8.07;82.30
9676;BME280;4876;42.656;23.292;2022-10-22T05:13:01;95139.44;;;8.14;84.08
9676;BME280;4876;42.656;23.292;2022-10-22T05:15:28;95143.63;;;8.15;83.82
9676;BME280;4876;42.656;23.292;2022-10-22T05:17:56;95139.91;;;8.21;84.02
9676;BME280;4876;42.656;23.292;2022-10-22T05:20:23;95145.56;;;8.33;82.96
9676;BME280;4876;42.656;23.292;2022-10-22T05:22:49;95144.50;;;8.34;83.01
9676;BME280;4876;42.656;23.292;2022-10-22T05:25:16;95132.41;;;8.43;82.29
9676;BME280;4876;42.656;23.292;2022-10-22T05:27:43;95133.44;;;8.42;82.53
9676;BME280;4876;42.656;23.292;2022-10-22T05:30:14;95131.81;;;8.51;81.89
9676;BME280;4876;42.656;23.292;2022-10-22T05:32:40;95139.28;;;8.63;81.81
9676;BME280;4876;42.656;23.292;2022-10-22T05:35:09;95137.50;;;8.58;81.49
9676;BME280;4876;42.656;23.292;2022-10-22T05:37:38;95142.75;;;8.58;82.38
9676;BME280;4876;42.656;23.292;2022-10-22T05:40:06;95151.06;;;8.66;82.37
9676;BME280;4876;42.656;23.292;2022-10-22T05:42:32;95145.22;;;8.74;82.11
9676;BME280;4876;42.656;23.292;2022-10-22T05:44:59;95144.34;;;8.83;81.68
9676;BME280;4876;42.656;23.292;2022-10-22T05:47:28;95143.28;;;8.84;81.24
9676;BME280;4876;42.656;23.292;2022-10-22T05:49:55;95140.09;;;8.87;81.24
9676;BME280;4876;42.656;23.292;2022-10-22T05:52:24;95150.25;;;8.94;81.73
9676;BME280;4876;42.656;23.292;2022-10-22T05:54:50;95132.34;;;9.01;81.45
9676;BME280;4876;42.656;23.292;2022-10-22T05:57:17;95135.41;;;9.08;81.39
9676;BME280;4876;42.656;23.292;2022-10-22T05:59:44;95134.31;;;9.14;81.33
9676;BME280;4876;42.656;23.292;2022-10-22T06:02:11;95136.78;;;9.25;80.73
9676;BME280;4876;42.656;23.292;2022-10-22T06:04:38;95140.84;;;9.36;79.58
9676;BME280;4876;42.656;23.292;2022-10-22T06:07:08;95141.63;;;9.36;79.39
9676;BME280;4876;42.656;23.292;2022-10-22T06:09:40;95147.28;;;9.25;80.70
9676;BME280;4876;42.656;23.292;2022-10-22T06:12:07;95139.94;;;9.27;81.67
9676;BME280;4876;42.656;23.292;2022-10-22T06:14:35;95140.91;;;9.31;81.30
9676;BME280;4876;42.656;23.292;2022-10-22T06:17:02;95139.44;;;9.43;80.78
9676;BME280;4876;42.656;23.292;2022-10-22T06:19:29;95151.34;;;9.36;81.49
9676;BME280;4876;42.656;23.292;2022-10-22T06:21:55;95145.34;;;9.11;83.10
9676;BME280;4876;42.656;23.292;2022-10-22T06:24:22;95155.63;;;9.08;83.35
9676;BME280;4876;42.656;23.292;2022-10-22T06:26:51;95151.72;;;9.05;81.68
9676;BME280;4876;42.656;23.292;2022-10-22T06:29:18;95151.22;;;9.03;84.80
9676;BME280;4876;42.656;23.292;2022-10-22T06:31:45;95146.31;;;8.97;84.87
9676;BME280;4876;42.656;23.292;2022-10-22T07:39:13;95148.28;;;11.57;72.12
9676;BME280;4876;42.656;23.292;2022-10-22T07:41:39;95150.38;;;11.32;72.84
9676;BME280;4876;42.656;23.292;2022-10-22T07:44:06;95144.03;;;11.20;73.70
9676;BME280;4876;42.656;23.292;2022-10-22T07:46:33;95142.66;;;11.36;72.32
9676;BME280;4876;42.656;23.292;2022-10-22T07:49:00;95139.34;;;11.30;71.95
9676;BME280;4876;42.656;23.292;2022-10-22T07:51:27;95130.47;;;11.26;72.63
9676;BME280;4876;42.656;23.292;2022-10-22T07:53:54;95118.69;;;11.10;73.73
9676;BME280;4876;42.656;23.292;2022-10-22T07:56:22;95118.19;;;11.22;74.03
9676;BME280;4876;42.656;23.292;2022-10-22T07:58:49;95119.06;;;11.17;73.96
9676;BME280;4876;42.656;23.292;2022-10-22T08:01:16;95123.34;;;11.27;73.65
9676;BME280;4876;42.656;23.292;2022-10-22T08:03:43;95128.22;;;11.33;72.35
9676;BME280;4876;42.656;23.292;2022-10-22T08:06:12;95130.75;;;11.52;72.09
9676;BME280;4876;42.656;23.292;2022-10-22T08:08:39;95124.25;;;11.72;71.45
9676;BME280;4876;42.656;23.292;2022-10-22T08:11:06;95131.25;;;11.91;70.71
9676;BME280;4876;42.656;23.292;2022-10-22T08:13:34;95122.13;;;11.74;71.27
9676;BME280;4876;42.656;23.292;2022-10-22T08:16:01;95121.97;;;11.79;70.58
9676;BME280;4876;42.656;23.292;2022-10-22T08:18:28;95115.66;;;11.80;70.49
9676;BME280;4876;42.656;23.292;2022-10-22T08:20:55;95112.34;;;11.89;70.00
9676;BME280;4876;42.656;23.292;2022-10-22T08:23:22;95115.81;;;11.98;70.36
9676;BME280;4876;42.656;23.292;2022-10-22T08:25:49;95108.69;;;12.21;69.12
9676;BME280;4876;42.656;23.292;2022-10-22T08:28:16;95107.63;;;12.53;68.49
9676;BME280;4876;42.656;23.292;2022-10-22T08:30:44;95099.81;;;12.70;66.81
9676;BME280;4876;42.656;23.292;2022-10-22T08:33:13;95099.69;;;12.75;66.94
9676;BME280;4876;42.656;23.292;2022-10-22T08:35:39;95107.53;;;12.66;67.90
9676;BME280;4876;42.656;23.292;2022-10-22T08:38:06;95101.47;;;12.57;67.94
9676;BME280;4876;42.656;23.292;2022-10-22T08:40:36;95071.66;;;12.57;67.15
9676;BME280;4876;42.656;23.292;2022-10-22T08:43:20;95108.59;;;12.88;67.26
9676;BME280;4876;42.656;23.292;2022-10-22T08:45:59;95114.00;;;12.83;67.60
9676;BME280;4876;42.656;23.292;2022-10-22T08:48:40;95114.31;;;12.81;67.24
9676;BME280;4876;42.656;23.292;2022-10-22T08:51:12;95111.13;;;13.02;67.02
9676;BME280;4876;42.656;23.292;2022-10-22T08:53:50;95105.66;;;13.29;65.73
9676;BME280;4876;42.656;23.292;2022-10-22T08:56:21;95083.88;;;13.24;64.94
9676;BME280;4876;42.656;23.292;2022-10-22T08:58:52;95107.06;;;13.44;64.65
9676;BME280;4876;42.656;23.292;2022-10-22T09:01:28;95113.88;;;13.28;65.81
9676;BME280;4876;42.656;23.292;2022-10-22T09:04:01;95103.34;;;13.45;65.02
9676;BME280;4876;42.656;23.292;2022-10-22T09:06:32;95099.91;;;13.44;64.40
9676;BME280;4876;42.656;23.292;2022-10-22T09:09:08;95105.03;;;13.32;65.54
9676;BME280;4876;42.656;23.292;2022-10-22T09:11:38;95097.59;;;13.52;64.77
9676;BME280;4876;42.656;23.292;2022-10-22T09:14:05;95089.22;;;13.58;65.70
9676;BME280;4876;42.656;23.292;2022-10-22T09:16:41;95089.69;;;13.95;64.73
9676;BME280;4876;42.656;23.292;2022-10-22T09:19:16;95092.00;;;13.96;64.00
9676;BME280;4876;42.656;23.292;2022-10-22T09:21:53;95087.19;;;13.90;63.83
9676;BME280;4876;42.656;23.292;2022-10-22T09:24:31;95093.88;;;13.79;64.18
9676;BME280;4876;42.656;23.292;2022-10-22T09:27:00;95085.81;;;13.92;63.41
9676;BME280;4876;42.656;23.292;2022-10-22T09:29:31;95071.50;;;14.11;63.43
9676;BME280;4876;42.656;23.292;2022-10-22T09:32:00;95080.50;;;14.18;63.84
9676;BME280;4876;42.656;23.292;2022-10-22T09:34:27;95079.22;;;14.33;62.68
9676;BME280;4876;42.656;23.292;2022-10-22T09:36:59;94998.88;;;13.65;63.27
9676;BME280;4876;42.656;23.292;2022-10-22T09:39:27;95074.28;;;14.23;62.90
9676;BME280;4876;42.656;23.292;2022-10-22T09:41:54;95065.50;;;14.40;62.58
9676;BME280;4876;42.656;23.292;2022-10-22T09:44:21;95041.25;;;14.29;63.15
9676;BME280;4876;42.656;23.292;2022-10-22T09:46:48;95070.94;;;14.61;61.45
9676;BME280;4876;42.656;23.292;2022-10-22T09:49:18;95028.28;;;14.45;61.60
9676;BME280;4876;42.656;23.292;2022-10-22T09:51:52;95048.16;;;14.68;61.33
9676;BME280;4876;42.656;23.292;2022-10-22T09:54:21;95050.47;;;14.78;61.66
9676;BME280;4876;42.656;23.292;2022-10-22T09:56:54;95049.53;;;14.74;61.06
9676;BME280;4876;42.656;23.292;2022-10-22T09:59:27;95053.75;;;14.75;61.93
9676;BME280;4876;42.656;23.292;2022-10-22T10:02:00;95052.03;;;14.71;61.49
9676;BME280;4876;42.656;23.292;2022-10-22T10:04:33;95055.38;;;14.97;61.14
9676;BME280;4876;42.656;23.292;2022-10-22T10:07:00;95055.66;;;15.04;59.80
9676;BME280;4876;42.656;23.292;2022-10-22T10:09:30;95033.75;;;14.87;60.38
9676;BME280;4876;42.656;23.292;2022-10-22T10:12:13;95020.88;;;15.06;60.07
9676;BME280;4876;42.656;23.292;2022-10-22T10:14:51;95025.94;;;15.20;59.85
9676;BME280;4876;42.656;23.292;2022-10-22T10:17:26;95037.38;;;15.32;60.06
9676;BME280;4876;42.656;23.292;2022-10-22T10:20:04;95037.56;;;15.27;59.08
9676;BME280;4876;42.656;23.292;2022-10-22T10:22:43;95032.78;;;15.21;59.56
9676;BME280;4876;42.656;23.292;2022-10-22T10:25:30;95004.31;;;15.09;58.87
9676;BME280;4876;42.656;23.292;2022-10-22T10:28:11;95026.75;;;15.41;58.87
9676;BME280;4876;42.656;23.292;2022-10-22T10:30:46;95027.13;;;15.31;59.73
9676;BME280;4876;42.656;23.292;2022-10-22T10:33:22;95019.31;;;15.55;58.22
9676;BME280;4876;42.656;23.292;2022-10-22T10:35:54;95011.00;;;15.66;58.32
9676;BME280;4876;42.656;23.292;2022-10-22T10:38:33;95019.75;;;15.57;57.83
9676;BME280;4876;42.656;23.292;2022-10-22T10:41:12;95015.81;;;15.64;58.62
9676;BME280;4876;42.656;23.292;2022-10-22T10:43:51;94995.97;;;15.70;58.54
9676;BME280;4876;42.656;23.292;2022-10-22T10:46:28;94999.41;;;15.70;58.07
9676;BME280;4876;42.656;23.292;2022-10-22T10:49:00;94995.13;;;15.78;58.00
9676;BME280;4876;42.656;23.292;2022-10-22T10:51:44;94993.31;;;15.91;58.13
9676;BME280;4876;42.656;23.292;2022-10-22T10:54:26;94985.69;;;16.01;57.80
9676;BME280;4876;42.656;23.292;2022-10-22T10:56:59;94978.44;;;16.10;56.67
9676;BME280;4876;42.656;23.292;2022-10-22T10:59:38;94970.47;;;16.10;57.10
9676;BME280;4876;42.656;23.292;2022-10-22T11:05:21;94961.84;;;16.26;56.76
9676;BME280;4876;42.656;23.292;2022-10-22T11:07:56;94955.44;;;16.27;56.74
9676;BME280;4876;42.656;23.292;2022-10-22T11:10:27;94949.81;;;16.28;56.67
9676;BME280;4876;42.656;23.292;2022-10-22T11:13:01;94942.84;;;16.24;56.99
9676;BME280;4876;42.656;23.292;2022-10-22T11:15:32;94938.88;;;16.30;56.48
9676;BME280;4876;42.656;23.292;2022-10-22T11:18:04;94941.09;;;16.40;57.00
9676;BME280;4876;42.656;23.292;2022-10-22T11:20:49;94936.66;;;16.32;56.34
9676;BME280;4876;42.656;23.292;2022-10-22T11:23:39;94926.72;;;16.41;56.34
9676;BME280;4876;42.656;23.292;2022-10-22T11:26:14;94917.63;;;16.54;56.35
9676;BME280;4876;42.656;23.292;2022-10-22T11:28:46;94906.03;;;16.47;56.57
9676;BME280;4876;42.656;23.292;2022-10-22T11:31:15;94909.66;;;16.66;56.58
9676;BME280;4876;42.656;23.292;2022-10-22T11:33:49;94885.31;;;16.64;55.29
9676;BME280;4876;42.656;23.292;2022-10-22T11:36:21;94904.78;;;16.81;55.17
9676;BME280;4876;42.656;23.292;2022-10-22T11:38:50;94894.16;;;16.81;55.45
9676;BME280;4876;42.656;23.292;2022-10-22T11:41:21;94889.06;;;16.88;55.26
9676;BME280;4876;42.656;23.292;2022-10-22T11:43:58;94899.81;;;16.91;55.63
9676;BME280;4876;42.656;23.292;2022-10-22T11:46:38;94860.56;;;16.73;54.82
9676;BME280;4876;42.656;23.292;2022-10-22T11:49:18;94902.53;;;17.07;54.52
9676;BME280;4876;42.656;23.292;2022-10-22T11:51:48;94886.84;;;17.02;54.46
9676;BME280;4876;42.656;23.292;2022-10-22T11:54:31;94861.25;;;16.98;54.51
9676;BME280;4876;42.656;23.292;2022-10-22T11:57:18;94882.53;;;17.26;54.42
9676;BME280;4876;42.656;23.292;2022-10-22T11:59:49;94886.13;;;17.45;53.14
9676;BME280;4876;42.656;23.292;2022-10-22T12:02:29;94888.44;;;17.47;52.94
9676;BME280;4876;42.656;23.292;2022-10-22T12:08:02;94884.41;;;17.53;52.51
9676;BME280;4876;42.656;23.292;2022-10-22T12:10:35;94887.09;;;17.69;52.28
9676;BME280;4876;42.656;23.292;2022-10-22T12:13:20;94879.34;;;17.92;52.34
9676;BME280;4876;42.656;23.292;2022-10-22T12:15:50;94876.00;;;17.95;52.38
9676;BME280;4876;42.656;23.292;2022-10-22T12:18:22;94871.63;;;17.87;51.72
9676;BME280;4876;42.656;23.292;2022-10-22T12:20:51;94863.81;;;17.94;52.20
9676;BME280;4876;42.656;23.292;2022-10-22T12:23:20;94866.53;;;17.82;52.25
9676;BME280;4876;42.656;23.292;2022-10-22T12:25:51;94858.31;;;17.87;51.74
9676;BME280;4876;42.656;23.292;2022-10-22T12:28:18;94859.09;;;17.87;51.67
9676;BME280;4876;42.656;23.292;2022-10-22T12:30:44;94854.00;;;17.82;52.28
9676;BME280;4876;42.656;23.292;2022-10-22T12:33:20;94858.31;;;17.87;52.21
9676;BME280;4876;42.656;23.292;2022-10-22T12:35:48;94852.56;;;18.00;51.86
9676;BME280;4876;42.656;23.292;2022-10-22T12:38:20;94852.03;;;17.95;51.49
9676;BME280;4876;42.656;23.292;2022-10-22T12:40:48;94856.44;;;18.03;51.39
9676;BME280;4876;42.656;23.292;2022-10-22T12:43:18;94849.50;;;18.14;51.21
9676;BME280;4876;42.656;23.292;2022-10-22T12:45:47;94853.84;;;18.22;50.75
9676;BME280;4876;42.656;23.292;2022-10-22T12:48:16;94849.19;;;18.19;50.33
9676;BME280;4876;42.656;23.292;2022-10-22T12:50:47;94821.41;;;18.01;50.77
9676;BME280;4876;42.656;23.292;2022-10-22T12:53:17;94854.97;;;18.21;50.87
9676;BME280;4876;42.656;23.292;2022-10-22T12:55:45;94841.66;;;18.21;50.71
9676;BME280;4876;42.656;23.292;2022-10-22T12:58:18;94841.22;;;18.19;51.25
9676;BME280;4876;42.656;23.292;2022-10-22T13:00:46;94829.00;;;18.34;51.39
9676;BME280;4876;42.656;23.292;2022-10-22T13:03:25;94828.66;;;18.51;50.90
9676;BME280;4876;42.656;23.292;2022-10-22T13:05:52;94831.50;;;18.62;50.95
9676;BME280;4876;42.656;23.292;2022-10-22T13:08:21;94821.72;;;18.66;50.66
9676;BME280;4876;42.656;23.292;2022-10-22T13:10:50;94830.38;;;18.63;50.40
9676;BME280;4876;42.656;23.292;2022-10-22T13:13:36;94830.06;;;18.65;50.05
9676;BME280;4876;42.656;23.292;2022-10-22T13:16:18;94827.03;;;18.66;50.40
9676;BME280;4876;42.656;23.292;2022-10-22T13:18:46;94827.25;;;18.58;50.87
9676;BME280;4876;42.656;23.292;2022-10-22T13:21:36;94826.03;;;18.71;50.65
9676;BME280;4876;42.656;23.292;2022-10-22T13:24:19;94826.94;;;18.78;50.67
9676;BME280;4876;42.656;23.292;2022-10-22T13:26:48;94816.44;;;18.86;50.02
9676;BME280;4876;42.656;23.292;2022-10-22T13:29:18;94809.56;;;18.85;50.79
9676;BME280;4876;42.656;23.292;2022-10-22T13:31:48;94810.69;;;18.83;49.99
9676;BME280;4876;42.656;23.292;2022-10-22T13:34:17;94809.06;;;18.79;50.35
9676;BME280;4876;42.656;23.292;2022-10-22T13:36:45;94818.72;;;18.68;50.33
9676;BME280;4876;42.656;23.292;2022-10-22T13:39:15;94823.16;;;18.79;50.45
9676;BME280;4876;42.656;23.292;2022-10-22T13:41:43;94807.13;;;18.76;49.80
9676;BME280;4876;42.656;23.292;2022-10-22T13:46:56;94811.38;;;18.80;49.98
9676;BME280;4876;42.656;23.292;2022-10-22T13:49:26;94804.38;;;18.72;50.52
9676;BME280;4876;42.656;23.292;2022-10-22T13:51:54;94798.88;;;18.65;50.86
9676;BME280;4876;42.656;23.292;2022-10-22T13:54:22;94805.13;;;18.73;50.45
9676;BME280;4876;42.656;23.292;2022-10-22T13:56:50;94811.22;;;18.73;50.24
9676;BME280;4876;42.656;23.292;2022-10-22T13:59:18;94810.88;;;18.75;50.39
9676;BME280;4876;42.656;23.292;2022-10-22T14:01:45;94816.97;;;18.75;50.38
9676;BME280;4876;42.656;23.292;2022-10-22T14:04:13;94812.50;;;18.79;50.08
9676;BME280;4876;42.656;23.292;2022-10-22T14:06:40;94816.78;;;18.84;49.98
9676;BME280;4876;42.656;23.292;2022-10-22T14:09:12;94801.16;;;18.82;50.19
9676;BME280;4876;42.656;23.292;2022-10-22T14:11:40;94806.91;;;18.85;50.30
9676;BME280;4876;42.656;23.292;2022-10-22T14:14:07;94810.88;;;18.94;50.45
9676;BME280;4876;42.656;23.292;2022-10-22T14:16:38;94812.72;;;18.90;50.32
9676;BME280;4876;42.656;23.292;2022-10-22T14:19:06;94803.59;;;18.91;50.66
9676;BME280;4876;42.656;23.292;2022-10-22T14:21:37;94804.22;;;18.85;52.46
9676;BME280;4876;42.656;23.292;2022-10-22T14:24:04;94803.47;;;18.84;53.70
9676;BME280;4876;42.656;23.292;2022-10-22T14:26:31;94798.63;;;18.70;54.39
9676;BME280;4876;42.656;23.292;2022-10-22T14:29:00;94795.75;;;18.63;55.45
9676;BME280;4876;42.656;23.292;2022-10-22T14:31:27;94790.88;;;18.65;55.33
9676;BME280;4876;42.656;23.292;2022-10-22T14:33:54;94785.34;;;18.74;55.61
9676;BME280;4876;42.656;23.292;2022-10-22T14:36:21;94789.66;;;18.78;55.47
9676;BME280;4876;42.656;23.292;2022-10-22T14:38:50;94790.50;;;18.82;55.16
9676;BME280;4876;42.656;23.292;2022-10-22T14:41:19;94794.97;;;18.78;55.33
9676;BME280;4876;42.656;23.292;2022-10-22T14:43:46;94788.25;;;18.85;54.68
9676;BME280;4876;42.656;23.292;2022-10-22T14:46:14;94794.84;;;18.71;55.24
9676;BME280;4876;42.656;23.292;2022-10-22T14:48:42;94790.19;;;18.68;55.19